Time;durP1;ratioP1;P1;durP2;ratioP2;P2;SDS_P1;SDS_P2;PMS_P1;PMS_P2;Temp;Humidity;BMP_temperature;BMP_pressure;BME280_temperature;BME280_humidity;BME280_pressure;Samples;Min_cycle;Max_cycle;Signal;HPM_P1;HPM_P2
2024/02/09 00:01:18;;;;;;;3.10;2.80;;;7.80;86.70;;;;;;5030466;28;19916;-62
2024/02/09 00:03:45;;;;;;;3.63;2.45;;;7.80;86.70;;;;;;5030656;28;20045;-67
2024/02/09 00:06:12;;;;;;;2.97;1.92;;;7.90;86.60;;;;;;5033077;28;20036;-67
2024/02/09 00:08:41;;;;;;;4.15;2.33;;;7.90;86.50;;;;;;5030396;28;20048;-67
2024/02/09 00:11:11;;;;;;;3.38;1.73;;;7.90;86.50;;;;;;5029453;28;20397;-67
2024/02/09 00:13:38;;;;;;;2.92;2.15;;;8.00;86.50;;;;;;5055618;28;20047;-67
2024/02/09 00:16:04;;;;;;;4.07;2.28;;;8.00;86.50;;;;;;5029091;28;20029;-66
2024/02/09 00:18:31;;;;;;;3.17;2.05;;;8.00;86.50;;;;;;5031497;28;20428;-67
2024/02/09 00:20:57;;;;;;;5.95;2.08;;;8.00;86.50;;;;;;5029856;28;20029;-68
2024/02/09 00:23:23;;;;;;;20.75;2.10;;;8.10;86.60;;;;;;5030938;28;20017;-67
2024/02/09 00:25:49;;;;;;;3.40;1.95;;;8.10;86.50;;;;;;5029037;28;20104;-67
2024/02/09 00:28:16;;;;;;;1.88;1.42;;;8.10;86.50;;;;;;5029502;28;20477;-67
2024/02/09 00:30:42;;;;;;;3.38;1.90;;;8.20;86.50;;;;;;5032679;28;20428;-67
2024/02/09 00:33:08;;;;;;;2.60;1.60;;;8.20;86.60;;;;;;5030634;28;20109;-67
2024/02/09 00:35:35;;;;;;;2.45;1.48;;;8.20;86.50;;;;;;5031553;28;20431;-67
2024/02/09 00:38:02;;;;;;;3.08;1.65;;;8.30;86.50;;;;;;5033332;28;20022;-67
2024/02/09 00:40:33;;;;;;;3.10;1.95;;;8.30;86.50;;;;;;5029932;28;20061;-62
2024/02/09 00:43:02;;;;;;;2.20;1.67;;;8.30;86.50;;;;;;5031163;28;20026;-62
2024/02/09 00:45:33;;;;;;;3.47;1.80;;;8.30;86.50;;;;;;5029419;28;20083;-62
2024/02/09 00:48:00;;;;;;;3.22;2.13;;;8.40;86.50;;;;;;5029965;28;20079;-62
2024/02/09 00:50:30;;;;;;;3.30;1.83;;;8.40;86.50;;;;;;5030211;28;20029;-62
2024/02/09 00:53:00;;;;;;;2.30;1.88;;;8.40;86.50;;;;;;5033405;28;20029;-62
2024/02/09 00:55:29;;;;;;;3.13;1.70;;;8.50;86.50;;;;;;5035317;28;20025;-62
2024/02/09 00:57:58;;;;;;;3.38;2.05;;;8.50;86.50;;;;;;5028823;28;20493;-62
2024/02/09 01:00:30;;;;;;;4.78;1.67;;;8.60;86.50;;;;;;5032669;28;20487;-62
2024/02/09 01:02:57;;;;;;;3.22;1.60;;;8.70;86.50;;;;;;5032808;28;20083;-67
2024/02/09 01:05:24;;;;;;;4.82;1.67;;;8.70;86.40;;;;;;5031574;28;20029;-67
2024/02/09 01:07:50;;;;;;;3.55;2.40;;;8.80;86.50;;;;;;5029000;28;20107;-67
2024/02/09 01:10:17;;;;;;;3.60;1.92;;;8.90;86.50;;;;;;5028945;28;20033;-67
2024/02/09 02:46:30;;;;;;;2.63;1.67;;;10.60;87.20;;;;;;5032536;28;20033;-62
2024/02/09 03:05:35;;;;;;;3.40;1.48;;;10.70;88.00;;;;;;5010411;28;20073;-62
2024/02/09 03:08:02;;;;;;;2.75;1.42;;;10.80;87.70;;;;;;5047092;28;20089;-62
2024/02/09 03:10:29;;;;;;;5.85;1.23;;;10.80;87.70;;;;;;5034930;28;20099;-63
2024/02/09 03:12:55;;;;;;;1.98;1.50;;;10.80;87.80;;;;;;5019920;28;20481;-63
2024/02/09 03:15:23;;;;;;;4.10;1.90;;;10.80;87.70;;;;;;5030406;28;20024;-62
2024/02/09 03:17:51;;;;;;;2.10;1.10;;;10.80;87.80;;;;;;5055791;28;20053;-63
2024/02/09 03:20:18;;;;;;;2.45;1.65;;;10.80;87.80;;;;;;5030830;28;20021;-63
2024/02/09 03:22:45;;;;;;;5.68;1.20;;;10.80;87.90;;;;;;5030071;28;20042;-63
2024/02/09 03:25:11;;;;;;;2.35;1.58;;;10.80;88.00;;;;;;5028461;28;20033;-62
2024/02/09 03:27:39;;;;;;;3.22;1.20;;;10.80;88.40;;;;;;5025493;28;20546;-63
2024/02/09 03:30:06;;;;;;;2.28;1.60;;;10.80;88.40;;;;;;5033108;28;20067;-62
2024/02/09 03:32:33;;;;;;;2.30;1.10;;;10.80;88.80;;;;;;5035872;28;20924;-62
2024/02/09 03:35:01;;;;;;;1.60;1.08;;;10.80;88.70;;;;;;5037094;28;20029;-62
2024/02/09 03:37:29;;;;;;;2.05;1.30;;;10.90;88.70;;;;;;5031346;28;20032;-62
2024/02/09 03:39:55;;;;;;;6.05;1.58;;;10.90;88.50;;;;;;5030667;28;20030;-63
2024/02/09 03:42:23;;;;;;;2.40;1.38;;;10.90;88.40;;;;;;5029763;28;20049;-62
2024/02/09 03:44:55;;;;;;;3.97;1.35;;;10.90;88.40;;;;;;5028077;28;20044;-63
2024/02/09 03:47:24;;;;;;;;;;;11.00;88.30;;;;;;5031829;28;20048;-63
2024/02/09 03:49:57;;;;;;;2.47;1.45;;;10.90;88.20;;;;;;5029052;28;19909;-62
2024/02/09 03:52:23;;;;;;;4.50;1.35;;;10.90;88.60;;;;;;5026772;28;20036;-63
2024/02/09 03:54:51;;;;;;;3.30;1.40;;;10.90;88.70;;;;;;5033133;28;20025;-62
2024/02/09 03:57:18;;;;;;;2.25;1.33;;;10.90;88.80;;;;;;5022498;28;20036;-62
2024/02/09 03:59:44;;;;;;;3.25;1.88;;;10.90;88.80;;;;;;5030197;28;20033;-67
2024/02/09 04:02:10;;;;;;;2.70;1.52;;;10.90;88.80;;;;;;5030161;28;20041;-67
2024/02/09 04:04:36;;;;;;;2.78;1.30;;;10.90;88.70;;;;;;5031257;28;20507;-63
2024/02/09 04:07:08;;;;;;;3.65;1.33;;;10.90;88.80;;;;;;5030153;28;20029;-62
2024/02/09 04:09:37;;;;;;;2.60;0.98;;;11.00;89.00;;;;;;5030758;28;20025;-67
2024/02/09 04:12:04;;;;;;;3.17;1.77;;;11.00;89.10;;;;;;5035779;28;20021;-67
2024/02/09 04:14:31;;;;;;;6.53;1.20;;;11.00;89.00;;;;;;5037490;28;20079;-62
2024/02/09 04:16:58;;;;;;;1.65;1.20;;;11.00;89.00;;;;;;5039301;28;20056;-63
2024/02/09 04:19:25;;;;;;;2.15;1.48;;;11.00;89.00;;;;;;5038499;28;20120;-62
2024/02/09 04:21:52;;;;;;;2.42;1.33;;;11.00;89.10;;;;;;5038020;28;20045;-63
2024/02/09 04:24:23;;;;;;;4.97;1.27;;;11.00;89.20;;;;;;5035820;28;20112;-62
2024/02/09 04:26:54;;;;;;;5.90;1.48;;;11.00;89.30;;;;;;5034159;28;20092;-62
2024/02/09 04:29:21;;;;;;;1.38;1.25;;;11.10;89.30;;;;;;5034104;28;20039;-63
2024/02/09 04:31:48;;;;;;;2.22;0.98;;;11.10;89.20;;;;;;5029655;28;20036;-63
2024/02/09 04:34:15;;;;;;;1.60;1.17;;;11.10;89.10;;;;;;5026013;28;20036;-63
2024/02/09 04:36:44;;;;;;;1.52;1.15;;;11.10;89.10;;;;;;5030817;28;20029;-63
2024/02/09 04:39:10;;;;;;;2.75;1.90;;;11.20;89.30;;;;;;5028898;28;20029;-63
2024/02/09 04:41:49;;;;;;;1.23;0.80;;;11.10;89.40;;;;;;5033531;28;20041;-62
2024/02/09 04:44:15;;;;;;;2.95;1.00;;;11.10;89.40;;;;;;5039058;28;20053;-62
2024/02/09 04:46:42;;;;;;;3.85;1.10;;;11.10;89.50;;;;;;5031243;28;20026;-62
2024/02/09 04:49:11;;;;;;;1.70;1.10;;;11.20;89.50;;;;;;5029660;28;20021;-62
2024/02/09 04:51:44;;;;;;;4.50;1.02;;;11.20;89.50;;;;;;5032129;28;20040;-63
2024/02/09 04:54:11;;;;;;;2.75;1.23;;;11.20;89.60;;;;;;5028947;28;20050;-63
2024/02/09 04:56:37;;;;;;;1.20;0.75;;;11.20;89.60;;;;;;5029784;28;20443;-63
2024/02/09 04:59:07;;;;;;;1.60;0.73;;;11.20;89.50;;;;;;5032403;28;20017;-63
2024/02/09 05:01:37;;;;;;;1.58;0.88;;;11.20;89.60;;;;;;5027122;28;20028;-63
2024/02/09 05:04:06;;;;;;;1.00;0.90;;;11.20;89.60;;;;;;5025541;28;20477;-63
2024/02/09 05:06:32;;;;;;;1.35;0.98;;;11.30;89.80;;;;;;5033979;28;20036;-62
2024/02/09 05:08:59;;;;;;;5.78;1.02;;;11.30;89.80;;;;;;5036530;28;20030;-67
2024/02/09 05:11:30;;;;;;;3.75;1.40;;;11.30;90.00;;;;;;5029222;28;20036;-67
2024/02/09 05:13:57;;;;;;;1.33;0.70;;;11.20;90.00;;;;;;5028009;28;20025;-67
2024/02/09 05:16:23;;;;;;;1.75;0.77;;;11.30;90.00;;;;;;5029309;28;20024;-67
2024/02/09 05:18:53;;;;;;;0.50;0.50;;;11.20;90.00;;;;;;5028762;28;20382;-67
2024/02/09 05:21:19;;;;;;;0.77;0.68;;;11.30;90.00;;;;;;5029305;28;20032;-63
2024/02/09 05:23:45;;;;;;;1.33;0.70;;;11.30;90.00;;;;;;5033183;28;20059;-67
2024/02/09 05:26:13;;;;;;;2.35;0.70;;;11.30;90.00;;;;;;5027519;28;20083;-67
2024/02/09 05:28:42;;;;;;;2.25;1.20;;;11.40;90.10;;;;;;5025748;28;20452;-67
2024/02/09 05:31:25;;;;;;;1.75;1.08;;;11.40;90.00;;;;;;5024209;28;20018;-67
2024/02/09 05:33:52;;;;;;;1.55;0.60;;;11.40;90.00;;;;;;5028784;28;20045;-67
2024/02/09 05:36:26;;;;;;;1.13;0.98;;;11.40;90.10;;;;;;5032074;28;20053;-67
2024/02/09 05:38:54;;;;;;;0.82;0.68;;;11.30;90.10;;;;;;5015041;28;20034;-67
2024/02/09 05:41:21;;;;;;;1.20;1.00;;;11.40;90.10;;;;;;5034279;28;20136;-67
2024/02/09 05:43:48;;;;;;;3.60;0.85;;;11.40;90.20;;;;;;5034656;28;20097;-63
2024/02/09 05:46:17;;;;;;;2.10;0.80;;;11.40;90.20;;;;;;5038215;28;20532;-62
2024/02/09 05:48:44;;;;;;;4.43;1.00;;;11.40;90.30;;;;;;5036354;28;20037;-63
2024/02/09 05:51:18;;;;;;;0.60;0.60;;;11.40;90.30;;;;;;5033612;28;20027;-63
2024/02/09 05:53:46;;;;;;;0.75;0.60;;;11.50;90.30;;;;;;5027775;28;20033;-63
2024/02/09 05:56:20;;;;;;;1.38;0.85;;;11.50;90.20;;;;;;5035809;28;20370;-62
2024/02/09 05:58:52;;;;;;;2.13;0.95;;;11.50;90.20;;;;;;5032045;28;20053;-63
2024/02/09 06:01:19;;;;;;;6.53;0.95;;;11.50;90.30;;;;;;5038179;28;20035;-63
2024/02/09 06:03:46;;;;;;;0.77;0.60;;;11.50;90.30;;;;;;5034954;28;20063;-67
2024/02/09 06:06:13;;;;;;;0.75;0.73;;;11.50;90.20;;;;;;5035468;28;20032;-68
2024/02/09 06:08:39;;;;;;;1.35;0.93;;;11.50;90.20;;;;;;5034541;28;20113;-63
2024/02/09 06:11:05;;;;;;;1.45;0.95;;;11.50;90.30;;;;;;5035321;28;20460;-67
2024/02/09 06:13:31;;;;;;;1.30;0.80;;;11.50;90.40;;;;;;5032897;28;20025;-67
2024/02/09 06:16:00;;;;;;;1.65;0.90;;;11.50;90.30;;;;;;5035432;28;20035;-67
2024/02/09 06:18:27;;;;;;;1.35;1.25;;;11.50;90.40;;;;;;5035477;28;20029;-67
2024/02/09 06:20:53;;;;;;;2.70;0.98;;;11.50;90.40;;;;;;5029442;28;20458;-67
2024/02/09 06:23:23;;;;;;;5.35;0.80;;;11.50;90.30;;;;;;5033359;28;20029;-63
2024/02/09 06:25:49;;;;;;;0.82;0.70;;;11.50;90.30;;;;;;5018336;28;20472;-63
2024/02/09 06:28:16;;;;;;;1.20;0.80;;;11.50;90.30;;;;;;5035188;28;20029;-68
2024/02/09 06:30:43;;;;;;;2.90;1.00;;;11.50;90.30;;;;;;5028251;28;20485;-67
2024/02/09 06:33:08;;;;;;;0.80;0.77;;;11.60;90.40;;;;;;5027679;28;20029;-68
2024/02/09 06:35:34;;;;;;;0.73;0.70;;;11.60;90.30;;;;;;5029357;28;20063;-68
2024/02/09 06:38:00;;;;;;;0.85;0.85;;;11.60;90.40;;;;;;5027449;28;20446;-68
2024/02/09 06:40:26;;;;;;;0.60;0.60;;;11.60;90.40;;;;;;5014765;28;20393;-63
2024/02/09 06:42:52;;;;;;;1.52;0.75;;;11.60;90.40;;;;;;5031172;28;20068;-63
2024/02/09 06:45:17;;;;;;;2.03;0.80;;;11.60;90.40;;;;;;5031302;28;20464;-63
2024/02/09 06:47:43;;;;;;;1.00;0.70;;;11.60;90.30;;;;;;5063957;28;20495;-67
2024/02/09 06:50:12;;;;;;;1.35;0.70;;;11.60;90.40;;;;;;5034413;28;20025;-67
2024/02/09 06:52:40;;;;;;;2.08;0.90;;;11.60;90.30;;;;;;5030638;28;20179;-67
2024/02/09 06:55:08;;;;;;;2.33;0.80;;;11.70;90.60;;;;;;5068958;28;20402;-67
2024/02/09 06:57:34;;;;;;;7.13;1.02;;;11.60;90.30;;;;;;5033398;28;20018;-67
2024/02/09 07:00:00;;;;;;;2.15;0.52;;;11.70;90.30;;;;;;5067740;28;20504;-67
2024/02/09 07:02:26;;;;;;;1.30;0.93;;;11.70;90.30;;;;;;5031875;28;20026;-67
2024/02/09 07:05:00;;;;;;;0.70;0.57;;;11.70;90.30;;;;;;5031422;28;20060;-67
2024/02/09 07:07:28;;;;;;;0.75;0.73;;;11.70;90.30;;;;;;5033023;28;20476;-67
2024/02/09 07:09:54;;;;;;;3.72;0.93;;;11.70;90.30;;;;;;5035448;28;20036;-67
2024/02/09 07:12:20;;;;;;;0.68;0.55;;;11.70;90.30;;;;;;5033111;28;20439;-67
2024/02/09 07:14:46;;;;;;;1.35;0.63;;;11.70;90.30;;;;;;5030262;28;20029;-67
2024/02/09 07:17:11;;;;;;;2.20;0.80;;;11.70;90.30;;;;;;5031418;28;20543;-67
2024/02/09 07:19:37;;;;;;;4.03;0.70;;;11.60;90.30;;;;;;5040259;28;20488;-63
2024/02/09 07:22:03;;;;;;;0.77;0.60;;;11.70;90.30;;;;;;5030376;28;20037;-63
2024/02/09 07:24:28;;;;;;;1.52;1.00;;;11.70;90.30;;;;;;5034317;28;20036;-63
2024/02/09 07:26:54;;;;;;;1.08;0.70;;;11.60;90.30;;;;;;5030443;28;20026;-63
2024/02/09 07:29:22;;;;;;;5.30;1.20;;;11.70;90.40;;;;;;5031358;28;20068;-63
2024/02/09 07:31:49;;;;;;;1.08;0.60;;;11.70;90.40;;;;;;5030456;28;20033;-67
2024/02/09 07:34:15;;;;;;;0.50;0.45;;;11.70;90.40;;;;;;5026129;28;20037;-63
2024/02/09 07:36:41;;;;;;;0.85;0.50;;;11.70;90.40;;;;;;5030826;28;20508;-63
2024/02/09 07:39:07;;;;;;;1.13;0.55;;;11.70;90.30;;;;;;5036316;28;20059;-63
2024/02/09 07:41:33;;;;;;;1.45;1.10;;;11.70;90.40;;;;;;5032235;28;20037;-63
2024/02/09 07:44:01;;;;;;;2.05;0.60;;;11.70;90.40;;;;;;5030679;28;20479;-67
2024/02/09 07:46:27;;;;;;;1.15;0.70;;;11.70;90.40;;;;;;5030464;28;20504;-67
2024/02/09 07:48:56;;;;;;;3.00;1.00;;;11.70;90.40;;;;;;5031800;28;20029;-67
2024/02/09 07:51:21;;;;;;;0.75;0.70;;;11.70;90.50;;;;;;5029296;28;20087;-62
2024/02/09 07:53:52;;;;;;;2.55;0.88;;;11.70;90.50;;;;;;5029228;28;20084;-63
2024/02/09 07:56:24;;;;;;;2.25;0.65;;;11.70;90.50;;;;;;5029676;28;20124;-63
2024/02/09 07:58:52;;;;;;;0.98;0.80;;;11.70;90.50;;;;;;5034134;28;20514;-63
2024/02/09 08:01:21;;;;;;;1.75;0.73;;;11.80;90.60;;;;;;5031996;28;20476;-63
2024/02/09 08:03:48;;;;;;;2.63;0.80;;;11.80;90.50;;;;;;5032676;28;20029;-65
2024/02/09 08:06:14;;;;;;;0.50;0.50;;;11.80;90.50;;;;;;5033519;28;20033;-66
2024/02/09 08:08:39;;;;;;;1.92;0.90;;;11.80;90.50;;;;;;5030855;28;20076;-66
2024/02/09 08:11:05;;;;;;;3.65;1.10;;;11.90;90.50;;;;;;5028704;28;20441;-66
2024/02/09 08:13:31;;;;;;;0.95;0.82;;;11.90;90.50;;;;;;5029657;28;20060;-66
2024/02/09 08:15:56;;;;;;;1.48;1.00;;;11.90;90.50;;;;;;5027116;28;20028;-67
2024/02/09 08:18:23;;;;;;;1.33;0.90;;;11.90;90.50;;;;;;5028819;28;20505;-67
2024/02/09 08:20:48;;;;;;;2.00;1.27;;;11.90;90.70;;;;;;5030434;28;20040;-67
2024/02/09 08:23:14;;;;;;;1.08;0.80;;;11.90;90.40;;;;;;5032191;28;20033;-63
2024/02/09 08:25:40;;;;;;;1.38;0.98;;;11.90;90.40;;;;;;5036765;28;20037;-62
2024/02/09 08:28:05;;;;;;;1.45;0.95;;;11.90;90.40;;;;;;5034815;28;20087;-62
2024/02/09 08:30:31;;;;;;;1.30;0.90;;;11.90;90.50;;;;;;5026077;28;20116;-63
2024/02/09 08:32:57;;;;;;;2.15;1.02;;;11.90;90.50;;;;;;5029904;28;20120;-62
2024/02/09 08:35:22;;;;;;;1.83;0.95;;;11.90;90.60;;;;;;5029119;28;20022;-63
2024/02/09 08:37:48;;;;;;;1.65;0.80;;;11.80;90.60;;;;;;5029884;28;20026;-62
2024/02/09 08:40:14;;;;;;;1.98;1.10;;;11.90;90.70;;;;;;5027275;28;20117;-62
2024/02/09 08:42:40;;;;;;;2.10;0.63;;;11.90;90.60;;;;;;5032054;28;20068;-62
2024/02/09 08:45:06;;;;;;;0.82;0.68;;;11.90;90.60;;;;;;5031291;28;20061;-62
2024/02/09 08:47:34;;;;;;;3.78;1.42;;;11.90;90.60;;;;;;5032497;28;20026;-67
2024/02/09 08:50:00;;;;;;;2.67;1.35;;;12.00;90.80;;;;;;5031818;28;20038;-68
2024/02/09 08:52:26;;;;;;;2.72;1.23;;;12.00;90.70;;;;;;5061652;28;20037;-67
2024/02/09 08:54:52;;;;;;;1.70;1.48;;;12.00;90.70;;;;;;5029496;28;20025;-62
2024/02/09 08:57:18;;;;;;;1.38;0.90;;;12.00;90.70;;;;;;5029003;28;20021;-62
2024/02/09 08:59:44;;;;;;;2.15;0.70;;;12.10;90.70;;;;;;5029305;28;20029;-62
2024/02/09 09:02:13;;;;;;;8.48;1.10;;;12.10;90.70;;;;;;5064839;28;20481;-66
2024/02/09 09:04:39;;;;;;;3.20;1.30;;;12.10;90.60;;;;;;5028356;28;20048;-67
2024/02/09 09:07:04;;;;;;;1.05;0.63;;;12.10;90.60;;;;;;5030339;28;20030;-66
2024/02/09 09:09:30;;;;;;;1.63;1.10;;;12.20;90.60;;;;;;5029423;28;20464;-67
2024/02/09 09:11:56;;;;;;;2.13;0.93;;;12.20;90.60;;;;;;5027938;28;20033;-67
2024/02/09 09:14:22;;;;;;;2.35;0.93;;;12.30;90.60;;;;;;5029953;28;20444;-67
2024/02/09 09:16:48;;;;;;;6.28;1.38;;;12.30;90.50;;;;;;5029490;28;20416;-67
2024/02/09 09:19:14;;;;;;;4.63;1.30;;;12.30;90.60;;;;;;5029093;28;20042;-67
2024/02/09 09:21:42;;;;;;;1.30;0.55;;;12.30;90.60;;;;;;5029070;28;20053;-67
2024/02/09 09:24:08;;;;;;;3.53;1.10;;;12.40;90.70;;;;;;5026808;28;20022;-62
2024/02/09 09:26:34;;;;;;;2.72;1.10;;;12.50;90.60;;;;;;5034843;28;20228;-67
2024/02/09 09:29:00;;;;;;;3.42;1.25;;;12.60;90.80;;;;;;5029358;28;20483;-67
2024/02/09 09:31:27;;;;;;;4.13;1.10;;;12.70;90.50;;;;;;5029034;28;20049;-67
2024/02/09 09:33:59;;;;;;;4.35;1.42;;;12.70;90.40;;;;;;5028939;28;20128;-67
2024/02/09 09:36:30;;;;;;;1.55;0.70;;;12.70;90.40;;;;;;5028174;28;20032;-67
2024/02/09 09:38:57;;;;;;;2.08;0.95;;;12.70;90.40;;;;;;5028391;28;20109;-67
2024/02/09 09:41:23;;;;;;;2.70;1.65;;;12.70;90.40;;;;;;5030531;28;20441;-67
2024/02/09 09:43:50;;;;;;;3.00;0.90;;;12.70;90.40;;;;;;5028311;28;20396;-67
2024/02/09 09:46:21;;;;;;;1.70;1.15;;;12.70;90.40;;;;;;5032627;28;20484;-67
2024/02/09 09:48:52;;;;;;;4.10;1.02;;;12.60;90.50;;;;;;5024005;28;20397;-67
2024/02/09 09:51:20;;;;;;;1.58;1.17;;;12.60;90.50;;;;;;5029026;28;20037;-67
2024/02/09 09:53:50;;;;;;;1.30;0.98;;;12.60;90.60;;;;;;5019958;28;20033;-63
2024/02/09 09:56:18;;;;;;;3.20;1.30;;;12.60;90.60;;;;;;5011951;28;20052;-62
2024/02/09 09:58:45;;;;;;;5.97;1.50;;;12.60;90.60;;;;;;5035802;28;20124;-67
2024/02/09 10:01:12;;;;;;;1.10;0.90;;;12.60;90.60;;;;;;5036995;28;20018;-67
2024/02/09 10:03:44;;;;;;;4.72;1.25;;;12.60;90.60;;;;;;5032046;28;20484;-67
2024/02/09 10:06:09;;;;;;;10.00;1.05;;;12.60;90.90;;;;;;5028987;28;20037;-67
2024/02/09 10:08:35;;;;;;;3.33;1.95;;;12.60;90.70;;;;;;5034167;28;20036;-67
2024/02/09 10:11:02;;;;;;;2.58;0.82;;;12.70;90.60;;;;;;5025317;28;20026;-67
2024/02/09 10:13:28;;;;;;;3.60;0.85;;;12.70;90.60;;;;;;5014310;28;20481;-67
2024/02/09 10:15:55;;;;;;;1.17;0.88;;;12.70;90.50;;;;;;5009883;28;20117;-67
2024/02/09 10:18:22;;;;;;;4.15;1.10;;;12.70;90.50;;;;;;5024595;28;20050;-67
2024/02/09 10:20:48;;;;;;;7.22;1.20;;;12.80;90.90;;;;;;5027607;28;20104;-67
2024/02/09 10:23:19;;;;;;;2.85;1.30;;;12.80;90.60;;;;;;5023885;28;20103;-67
2024/02/09 10:25:45;;;;;;;4.97;1.50;;;12.90;90.60;;;;;;5022740;28;20033;-67
2024/02/09 10:28:12;;;;;;;4.60;1.05;;;13.00;90.50;;;;;;5033286;28;20025;-67
2024/02/09 10:30:38;;;;;;;1.27;0.73;;;13.20;90.40;;;;;;5016986;28;20034;-66
2024/02/09 10:33:10;;;;;;;2.20;1.55;;;13.10;90.30;;;;;;5021166;28;20508;-64
2024/02/09 10:35:36;;;;;;;2.17;1.33;;;13.10;90.30;;;;;;5021475;28;20029;-65
2024/02/09 10:38:02;;;;;;;5.88;1.20;;;13.10;90.30;;;;;;5031344;28;20041;-65
2024/02/09 10:40:29;;;;;;;1.63;1.05;;;13.10;90.30;;;;;;5019451;28;20068;-66
2024/02/09 10:42:56;;;;;;;0.93;0.80;;;13.10;90.30;;;;;;5030333;28;20060;-67
2024/02/09 10:45:25;;;;;;;4.05;1.00;;;13.10;90.30;;;;;;5030672;28;20021;-63
2024/02/09 10:47:54;;;;;;;3.00;0.82;;;13.10;90.30;;;;;;5015304;28;20522;-62
2024/02/09 10:50:21;;;;;;;2.70;1.05;;;13.10;90.40;;;;;;5027113;28;20018;-62
2024/02/09 10:52:51;;;;;;;3.97;1.33;;;13.10;90.30;;;;;;5017256;28;20036;-62
2024/02/09 10:55:26;;;;;;;0.88;0.85;;;13.10;90.30;;;;;;5033690;28;20122;-66
2024/02/09 10:57:54;;;;;;;4.03;1.48;;;13.10;90.30;;;;;;5019127;28;20174;-66
2024/02/09 11:00:20;;;;;;;4.35;0.88;;;13.10;90.30;;;;;;5018860;28;20026;-67
2024/02/09 11:02:46;;;;;;;0.90;0.70;;;13.20;90.30;;;;;;5016516;28;20079;-66
2024/02/09 11:05:15;;;;;;;0.73;0.73;;;13.20;90.30;;;;;;5021156;28;20022;-67
2024/02/09 11:07:46;;;;;;;2.03;0.90;;;13.20;90.20;;;;;;5020467;28;20034;-67
2024/02/09 11:10:16;;;;;;;1.80;0.90;;;13.30;90.20;;;;;;5024260;28;20037;-66
2024/02/09 11:12:42;;;;;;;0.73;0.73;;;13.40;90.20;;;;;;5024978;28;20078;-66
2024/02/09 11:15:15;;;;;;;2.00;1.20;;;13.40;90.10;;;;;;5021147;28;20111;-66
2024/02/09 11:17:46;;;;;;;4.25;1.70;;;13.50;90.00;;;;;;5024323;28;20033;-66
2024/02/09 11:20:13;;;;;;;3.75;1.13;;;13.50;90.00;;;;;;5021893;28;20069;-66
2024/02/09 11:22:43;;;;;;;1.83;1.27;;;13.40;90.00;;;;;;5024633;28;20112;-66
2024/02/09 11:25:11;;;;;;;5.43;0.82;;;13.40;90.00;;;;;;5022512;28;20021;-66
2024/02/09 11:27:46;;;;;;;1.48;0.82;;;13.40;90.00;;;;;;5025590;28;20489;-66
2024/02/09 11:30:12;;;;;;;1.45;1.00;;;13.30;90.00;;;;;;5017680;28;20158;-62
2024/02/09 11:32:39;;;;;;;2.13;1.25;;;13.20;90.10;;;;;;5017336;28;20199;-62
2024/02/09 11:35:05;;;;;;;2.88;0.70;;;13.20;90.20;;;;;;5026444;28;20180;-62
2024/02/09 11:37:31;;;;;;;3.45;0.90;;;13.20;90.30;;;;;;5032209;28;20476;-66
2024/02/09 11:39:58;;;;;;;1.10;1.00;;;13.20;90.40;;;;;;5019887;28;20033;-66
2024/02/09 11:42:24;;;;;;;2.35;1.20;;;13.30;90.50;;;;;;5027432;28;20068;-66
2024/02/09 11:44:52;;;;;;;1.52;1.38;;;13.60;90.40;;;;;;5020086;28;20033;-66
2024/02/09 11:47:18;;;;;;;2.22;1.08;;;13.90;90.30;;;;;;5035290;28;20108;-66
2024/02/09 11:49:46;;;;;;;1.50;1.20;;;14.20;89.80;;;;;;5028971;28;20500;-66
2024/02/09 11:52:12;;;;;;;5.32;1.50;;;14.30;89.10;;;;;;5033930;28;20924;-62
2024/02/09 11:54:38;;;;;;;2.63;1.58;;;14.30;88.90;;;;;;5034595;28;20087;-66
2024/02/09 11:57:04;;;;;;;4.85;1.58;;;14.20;88.90;;;;;;5022489;28;20403;-67
2024/02/09 11:59:30;;;;;;;1.17;0.52;;;14.10;89.00;;;;;;5034630;28;20032;-66
2024/02/09 12:01:56;;;;;;;3.72;1.30;;;14.00;89.20;;;;;;5020295;28;20023;-67
2024/02/09 12:04:23;;;;;;;3.20;1.17;;;14.00;89.20;;;;;;5022094;28;20037;-66
2024/02/09 12:06:49;;;;;;;2.42;1.27;;;13.90;88.90;;;;;;5015613;28;20116;-62
2024/02/09 12:09:15;;;;;;;3.60;1.00;;;13.80;89.10;;;;;;5009890;28;20361;-62
2024/02/09 12:11:46;;;;;;;1.48;0.85;;;13.80;89.10;;;;;;5041425;28;20493;-62
2024/02/09 12:14:12;;;;;;;2.95;0.90;;;13.80;89.20;;;;;;5005560;28;20260;-62
2024/02/09 12:16:38;;;;;;;2.78;1.08;;;13.80;89.10;;;;;;5028637;28;20052;-62
2024/02/09 12:19:04;;;;;;;2.00;0.93;;;13.80;89.00;;;;;;5036653;28;20492;-62
2024/02/09 12:21:29;;;;;;;3.20;0.88;;;13.90;89.00;;;;;;5023361;28;20025;-62
2024/02/09 12:23:55;;;;;;;1.75;0.70;;;13.90;88.80;;;;;;5029538;28;20038;-62
2024/02/09 12:26:22;;;;;;;3.35;1.20;;;14.00;88.70;;;;;;5030229;28;20030;-62
2024/02/09 12:28:48;;;;;;;4.38;1.42;;;14.10;88.30;;;;;;5016469;28;20152;-62
2024/02/09 12:31:16;;;;;;;6.53;1.15;;;14.10;88.20;;;;;;5055188;28;20037;-62
2024/02/09 12:33:47;;;;;;;0.88;0.60;;;14.10;87.80;;;;;;5025216;28;20044;-62
2024/02/09 12:36:14;;;;;;;1.88;1.17;;;14.10;88.00;;;;;;5030108;28;20026;-62
2024/02/09 12:38:41;;;;;;;0.88;0.70;;;14.10;88.00;;;;;;5040420;28;20063;-67
2024/02/09 12:41:12;;;;;;;1.70;0.90;;;14.10;87.80;;;;;;5014069;28;20697;-62
2024/02/09 12:43:38;;;;;;;13.80;1.38;;;14.10;87.70;;;;;;5023047;28;20120;-64
2024/02/09 12:46:06;;;;;;;1.85;0.93;;;14.10;87.50;;;;;;5026316;28;20048;-62
2024/02/09 12:48:36;;;;;;;2.08;0.95;;;14.10;87.00;;;;;;5028282;28;20033;-62
2024/02/09 12:51:05;;;;;;;0.82;0.52;;;14.20;87.10;;;;;;5029606;28;20076;-69
2024/02/09 12:53:34;;;;;;;2.08;0.90;;;14.20;87.10;;;;;;5027375;28;20030;-64
2024/02/09 12:56:00;;;;;;;2.15;0.80;;;14.20;87.00;;;;;;5017378;28;20485;-62
2024/02/09 12:58:26;;;;;;;3.25;1.13;;;14.20;87.10;;;;;;5026974;28;20080;-64
2024/02/09 13:00:52;;;;;;;5.68;1.42;;;14.20;86.80;;;;;;5019315;28;20033;-62
2024/02/09 13:03:20;;;;;;;2.40;0.93;;;14.20;86.90;;;;;;5029297;28;20025;-63
2024/02/09 13:05:47;;;;;;;4.13;0.68;;;14.20;86.80;;;;;;5027184;28;20103;-62
2024/02/09 13:08:13;;;;;;;5.53;0.77;;;14.20;86.80;;;;;;5025226;28;20472;-62
2024/02/09 13:10:38;;;;;;;0.73;0.73;;;14.20;86.70;;;;;;5027271;28;20024;-63
2024/02/09 13:13:06;;;;;;;1.73;0.85;;;14.20;86.50;;;;;;5024027;28;20556;-62
2024/02/09 13:15:35;;;;;;;2.30;0.70;;;14.20;86.40;;;;;;5035442;28;20053;-62
2024/02/09 13:18:08;;;;;;;3.22;1.27;;;14.20;86.40;;;;;;5032115;28;20025;-68
2024/02/09 13:20:35;;;;;;;2.50;1.17;;;14.20;86.30;;;;;;5025960;28;20025;-67
2024/02/09 13:23:01;;;;;;;3.50;1.08;;;14.20;86.10;;;;;;5029048;28;20090;-67
2024/02/09 13:25:32;;;;;;;1.90;0.73;;;14.20;86.20;;;;;;5024757;28;20045;-67
2024/02/09 13:27:59;;;;;;;1.63;0.63;;;14.20;85.90;;;;;;5030810;28;20076;-67
2024/02/09 13:30:27;;;;;;;1.63;0.70;;;14.20;85.90;;;;;;5031023;28;20112;-67
2024/02/09 13:32:53;;;;;;;3.35;1.38;;;14.20;85.80;;;;;;5029380;28;20071;-63
2024/02/09 13:35:19;;;;;;;1.38;0.70;;;14.30;85.80;;;;;;5034109;28;20061;-62
2024/02/09 13:37:45;;;;;;;1.45;1.23;;;14.30;85.70;;;;;;5027091;28;20021;-63
2024/02/09 13:40:16;;;;;;;1.73;1.00;;;14.30;85.60;;;;;;5025203;28;20032;-68
2024/02/09 13:42:49;;;;;;;1.07;0.97;;;14.20;85.60;;;;;;5029036;28;20065;-68
2024/02/09 13:45:17;;;;;;;0.90;0.90;;;14.20;85.80;;;;;;5030980;28;20499;-68
2024/02/09 13:47:44;;;;;;;4.25;0.82;;;14.30;85.70;;;;;;5029911;28;20045;-68
2024/02/09 13:50:11;;;;;;;1.45;0.70;;;14.20;85.50;;;;;;5025718;28;20029;-68
2024/02/09 13:52:38;;;;;;;5.45;1.00;;;14.30;85.60;;;;;;5026931;28;20456;-68
2024/02/09 13:55:06;;;;;;;1.40;0.82;;;14.30;85.70;;;;;;5027551;28;20040;-68
2024/02/09 13:57:32;;;;;;;1.52;0.60;;;14.30;85.70;;;;;;5030983;28;20025;-63
2024/02/09 13:59:58;;;;;;;0.50;0.45;;;14.30;85.60;;;;;;5030005;28;20087;-63
2024/02/09 14:02:24;;;;;;;0.60;0.50;;;14.30;85.60;;;;;;5034354;28;20037;-62
2024/02/09 14:04:50;;;;;;;3.88;0.85;;;14.30;85.50;;;;;;5031587;28;20021;-62
2024/02/09 14:07:17;;;;;;;5.28;1.20;;;14.30;85.60;;;;;;5033064;28;20032;-62
2024/02/09 14:09:42;;;;;;;0.55;0.50;;;14.30;85.40;;;;;;5027631;28;20080;-68
2024/02/09 14:12:12;;;;;;;4.88;1.30;;;14.30;85.60;;;;;;5031911;28;20552;-63
2024/02/09 14:14:38;;;;;;;1.10;0.88;;;14.30;85.70;;;;;;5035152;28;20052;-68
2024/02/09 14:17:05;;;;;;;2.65;0.93;;;14.30;85.70;;;;;;5033507;28;20441;-68
2024/02/09 14:19:31;;;;;;;2.90;1.08;;;14.30;85.80;;;;;;5029440;28;20559;-68
2024/02/09 14:21:56;;;;;;;4.40;0.90;;;14.30;85.80;;;;;;5034785;28;20086;-68
2024/02/09 14:24:22;;;;;;;2.65;1.00;;;14.30;85.90;;;;;;5031587;28;20492;-68
2024/02/09 14:26:50;;;;;;;2.15;0.90;;;14.30;86.00;;;;;;5063618;28;20025;-68
2024/02/09 14:29:16;;;;;;;1.67;1.10;;;14.30;86.00;;;;;;5031627;28;20024;-62
2024/02/09 14:31:43;;;;;;;1.05;0.60;;;14.30;85.90;;;;;;5030797;28;20167;-68
2024/02/09 14:34:09;;;;;;;3.60;1.25;;;14.30;86.00;;;;;;5031235;28;20088;-68
2024/02/09 14:36:35;;;;;;;1.17;0.90;;;14.20;86.10;;;;;;5024972;28;20026;-68
2024/02/09 14:39:01;;;;;;;0.88;0.68;;;14.30;86.00;;;;;;5029333;28;20018;-68